sensor_id;sensor_type;location;lat;lon;timestamp;temperature;humidity
16243;DHT22;11719;51.052;6.982;2023-03-03T00:01:04;5.70;99.90
16243;DHT22;11719;51.052;6.982;2023-03-03T00:03:31;5.80;99.90
16243;DHT22;11719;51.052;6.982;2023-03-03T00:05:57;5.70;99.90
16243;DHT22;11719;51.052;6.982;2023-03-03T00:08:24;5.70;99.90
16243;DHT22;11719;51.052;6.982;2023-03-03T00:10:50;5.60;99.90
16243;DHT22;11719;51.052;6.982;2023-03-03T00:13:22;5.60;99.90
16243;DHT22;11719;51.052;6.982;2023-03-03T00:15:50;5.50;99.90
16243;DHT22;11719;51.052;6.982;2023-03-03T00:18:29;5.50;99.90
16243;DHT22;11719;51.052;6.982;2023-03-03T00:21:01;5.40;99.90
16243;DHT22;11719;51.052;6.982;2023-03-03T00:23:39;5.40;99.90
16243;DHT22;11719;51.052;6.982;2023-03-03T00:26:29;5.40;99.90
16243;DHT22;11719;51.052;6.982;2023-03-03T00:29:01;5.40;99.90
16243;DHT22;11719;51.052;6.982;2023-03-03T00:36:41;5.50;99.90
16243;DHT22;11719;51.052;6.982;2023-03-03T00:39:30;5.60;99.90
16243;DHT22;11719;51.052;6.982;2023-03-03T00:41:59;5.50;99.90
16243;DHT22;11719;51.052;6.982;2023-03-03T00:44:41;5.40;99.90
16243;DHT22;11719;51.052;6.982;2023-03-03T00:49:44;5.30;99.90
16243;DHT22;11719;51.052;6.982;2023-03-03T00:52:16;5.40;99.90
16243;DHT22;11719;51.052;6.982;2023-03-03T00:54:43;5.40;99.90
16243;DHT22;11719;51.052;6.982;2023-03-03T00:57:09;5.30;99.90
16243;DHT22;11719;51.052;6.982;2023-03-03T00:59:37;5.30;99.90
16243;DHT22;11719;51.052;6.982;2023-03-03T01:02:03;5.20;99.90
16243;DHT22;11719;51.052;6.982;2023-03-03T01:04:29;5.20;99.90
16243;DHT22;11719;51.052;6.982;2023-03-03T01:06:55;5.10;99.90
16243;DHT22;11719;51.052;6.982;2023-03-03T01:09:21;5.10;99.90
16243;DHT22;11719;51.052;6.982;2023-03-03T01:11:48;5.10;99.90
16243;DHT22;11719;51.052;6.982;2023-03-03T01:14:14;5.10;99.90
16243;DHT22;11719;51.052;6.982;2023-03-03T01:16:39;5.10;99.90
16243;DHT22;11719;51.052;6.982;2023-03-03T01:19:06;5.10;99.90
16243;DHT22;11719;51.052;6.982;2023-03-03T01:21:32;5.00;99.90
16243;DHT22;11719;51.052;6.982;2023-03-03T01:23:58;4.90;99.90
16243;DHT22;11719;51.052;6.982;2023-03-03T01:26:24;4.80;99.90
16243;DHT22;11719;51.052;6.982;2023-03-03T01:28:50;4.70;99.90
16243;DHT22;11719;51.052;6.982;2023-03-03T01:31:15;4.70;99.90
16243;DHT22;11719;51.052;6.982;2023-03-03T01:33:41;4.70;99.90
16243;DHT22;11719;51.052;6.982;2023-03-03T01:36:07;4.70;99.90
16243;DHT22;11719;51.052;6.982;2023-03-03T01:38:37;4.60;99.90
16243;DHT22;11719;51.052;6.982;2023-03-03T01:41:03;4.70;99.90
16243;DHT22;11719;51.052;6.982;2023-03-03T01:43:31;4.70;99.90
16243;DHT22;11719;51.052;6.982;2023-03-03T01:48:35;4.80;99.90
16243;DHT22;11719;51.052;6.982;2023-03-03T01:51:25;4.80;99.90
16243;DHT22;11719;51.052;6.982;2023-03-03T01:54:05;4.80;99.90
16243;DHT22;11719;51.052;6.982;2023-03-03T01:56:35;4.80;99.90
16243;DHT22;11719;51.052;6.982;2023-03-03T01:59:04;4.80;99.90
16243;DHT22;11719;51.052;6.982;2023-03-03T02:01:33;4.80;99.90
16243;DHT22;11719;51.052;6.982;2023-03-03T02:03:59;4.80;99.90
16243;DHT22;11719;51.052;6.982;2023-03-03T02:06:36;4.80;99.90
16243;DHT22;11719;51.052;6.982;2023-03-03T02:09:13;4.80;99.90
16243;DHT22;11719;51.052;6.982;2023-03-03T02:11:44;4.80;99.90
16243;DHT22;11719;51.052;6.982;2023-03-03T02:14:12;4.80;99.90
16243;DHT22;11719;51.052;6.982;2023-03-03T02:16:39;4.80;99.90
16243;DHT22;11719;51.052;6.982;2023-03-03T02:19:10;4.90;99.90
16243;DHT22;11719;51.052;6.982;2023-03-03T02:21:42;4.80;99.90
16243;DHT22;11719;51.052;6.982;2023-03-03T02:24:17;4.80;99.90
16243;DHT22;11719;51.052;6.982;2023-03-03T02:26:46;4.80;99.90
16243;DHT22;11719;51.052;6.982;2023-03-03T02:29:13;4.80;99.90
16243;DHT22;11719;51.052;6.982;2023-03-03T02:31:38;4.80;99.90
16243;DHT22;11719;51.052;6.982;2023-03-03T02:34:05;4.80;99.90
16243;DHT22;11719;51.052;6.982;2023-03-03T02:36:34;4.90;99.90
16243;DHT22;11719;51.052;6.982;2023-03-03T02:42:18;4.90;99.90
16243;DHT22;11719;51.052;6.982;2023-03-03T02:44:46;4.90;99.90
16243;DHT22;11719;51.052;6.982;2023-03-03T02:47:12;4.90;99.90
16243;DHT22;11719;51.052;6.982;2023-03-03T02:49:38;5.00;99.90
16243;DHT22;11719;51.052;6.982;2023-03-03T02:52:06;5.10;99.90
16243;DHT22;11719;51.052;6.982;2023-03-03T02:54:37;5.10;99.90
16243;DHT22;11719;51.052;6.982;2023-03-03T02:57:04;5.10;99.90
16243;DHT22;11719;51.052;6.982;2023-03-03T02:59:30;5.40;99.90
16243;DHT22;11719;51.052;6.982;2023-03-03T03:01:56;5.50;99.90
16243;DHT22;11719;51.052;6.982;2023-03-03T03:04:26;6.00;99.90
16243;DHT22;11719;51.052;6.982;2023-03-03T03:06:52;6.00;99.90
16243;DHT22;11719;51.052;6.982;2023-03-03T03:09:21;6.00;99.90
16243;DHT22;11719;51.052;6.982;2023-03-03T03:11:47;5.80;99.90
16243;DHT22;11719;51.052;6.982;2023-03-03T03:14:14;5.80;99.90
16243;DHT22;11719;51.052;6.982;2023-03-03T03:16:40;5.80;99.90
16243;DHT22;11719;51.052;6.982;2023-03-03T03:19:07;5.70;99.90
16243;DHT22;11719;51.052;6.982;2023-03-03T03:21:33;5.60;99.90
16243;DHT22;11719;51.052;6.982;2023-03-03T03:23:59;5.50;99.90
16243;DHT22;11719;51.052;6.982;2023-03-03T03:26:25;5.50;99.90
16243;DHT22;11719;51.052;6.982;2023-03-03T03:28:51;5.40;99.90
16243;DHT22;11719;51.052;6.982;2023-03-03T03:31:18;5.30;99.90
16243;DHT22;11719;51.052;6.982;2023-03-03T03:33:45;5.30;99.90
16243;DHT22;11719;51.052;6.982;2023-03-03T03:36:11;5.30;99.90
16243;DHT22;11719;51.052;6.982;2023-03-03T03:38:37;5.30;99.90
16243;DHT22;11719;51.052;6.982;2023-03-03T03:41:04;5.40;99.90
16243;DHT22;11719;51.052;6.982;2023-03-03T03:43:31;5.50;99.90
16243;DHT22;11719;51.052;6.982;2023-03-03T03:45:57;5.50;99.90
16243;DHT22;11719;51.052;6.982;2023-03-03T03:48:23;5.50;99.90
16243;DHT22;11719;51.052;6.982;2023-03-03T03:50:49;5.50;99.90
16243;DHT22;11719;51.052;6.982;2023-03-03T03:53:16;5.50;99.90
16243;DHT22;11719;51.052;6.982;2023-03-03T03:55:43;5.50;99.90
16243;DHT22;11719;51.052;6.982;2023-03-03T03:58:13;5.40;99.90
16243;DHT22;11719;51.052;6.982;2023-03-03T04:00:41;5.40;99.90
16243;DHT22;11719;51.052;6.982;2023-03-03T04:03:08;5.40;99.90
16243;DHT22;11719;51.052;6.982;2023-03-03T04:05:34;5.30;99.90
16243;DHT22;11719;51.052;6.982;2023-03-03T04:08:00;5.30;99.90
16243;DHT22;11719;51.052;6.982;2023-03-03T04:10:26;5.30;99.90
16243;DHT22;11719;51.052;6.982;2023-03-03T04:12:51;5.20;99.90
16243;DHT22;11719;51.052;6.982;2023-03-03T04:15:17;5.20;99.90
16243;DHT22;11719;51.052;6.982;2023-03-03T04:17:43;5.20;99.90
16243;DHT22;11719;51.052;6.982;2023-03-03T04:20:12;5.20;99.90
16243;DHT22;11719;51.052;6.982;2023-03-03T04:22:40;5.10;99.90
16243;DHT22;11719;51.052;6.982;2023-03-03T04:25:07;5.10;99.90
16243;DHT22;11719;51.052;6.982;2023-03-03T04:27:35;5.10;99.90
16243;DHT22;11719;51.052;6.982;2023-03-03T04:30:02;5.10;99.90
16243;DHT22;11719;51.052;6.982;2023-03-03T04:32:29;5.10;99.90
16243;DHT22;11719;51.052;6.982;2023-03-03T04:34:58;5.20;99.90
16243;DHT22;11719;51.052;6.982;2023-03-03T04:37:24;5.30;99.90
16243;DHT22;11719;51.052;6.982;2023-03-03T04:39:50;5.30;99.90
16243;DHT22;11719;51.052;6.982;2023-03-03T04:42:16;5.30;99.90
16243;DHT22;11719;51.052;6.982;2023-03-03T04:44:42;5.30;99.90
16243;DHT22;11719;51.052;6.982;2023-03-03T04:47:07;5.30;99.90
16243;DHT22;11719;51.052;6.982;2023-03-03T04:49:33;5.40;99.90
16243;DHT22;11719;51.052;6.982;2023-03-03T04:51:59;5.30;99.90
16243;DHT22;11719;51.052;6.982;2023-03-03T04:54:25;5.40;99.90
16243;DHT22;11719;51.052;6.982;2023-03-03T04:56:51;5.40;99.90
16243;DHT22;11719;51.052;6.982;2023-03-03T04:59:17;5.40;99.90
16243;DHT22;11719;51.052;6.982;2023-03-03T05:01:42;5.60;99.90
16243;DHT22;11719;51.052;6.982;2023-03-03T05:04:10;5.80;99.90
16243;DHT22;11719;51.052;6.982;2023-03-03T05:06:36;5.80;99.90
16243;DHT22;11719;51.052;6.982;2023-03-03T05:09:02;6.10;99.90
16243;DHT22;11719;51.052;6.982;2023-03-03T05:11:28;6.10;99.90
16243;DHT22;11719;51.052;6.982;2023-03-03T05:13:54;6.60;99.90
16243;DHT22;11719;51.052;6.982;2023-03-03T05:16:20;6.90;99.90
16243;DHT22;11719;51.052;6.982;2023-03-03T05:18:46;6.80;99.90
16243;DHT22;11719;51.052;6.982;2023-03-03T05:21:13;7.00;99.90
16243;DHT22;11719;51.052;6.982;2023-03-03T05:23:39;7.50;99.90
16243;DHT22;11719;51.052;6.982;2023-03-03T05:26:04;7.30;99.90
16243;DHT22;11719;51.052;6.982;2023-03-03T05:28:31;7.40;99.90
16243;DHT22;11719;51.052;6.982;2023-03-03T05:30:57;7.80;99.90
16243;DHT22;11719;51.052;6.982;2023-03-03T05:33:23;8.00;99.90
16243;DHT22;11719;51.052;6.982;2023-03-03T05:35:56;7.70;99.90
16243;DHT22;11719;51.052;6.982;2023-03-03T05:38:23;7.50;99.90
16243;DHT22;11719;51.052;6.982;2023-03-03T05:40:49;7.50;99.90
16243;DHT22;11719;51.052;6.982;2023-03-03T05:43:15;7.80;99.90
16243;DHT22;11719;51.052;6.982;2023-03-03T05:45:41;7.70;99.90
16243;DHT22;11719;51.052;6.982;2023-03-03T05:48:07;7.70;99.90
16243;DHT22;11719;51.052;6.982;2023-03-03T05:50:35;8.40;99.90
16243;DHT22;11719;51.052;6.982;2023-03-03T05:53:02;9.50;99.90
16243;DHT22;11719;51.052;6.982;2023-03-03T05:55:27;9.00;99.90
16243;DHT22;11719;51.052;6.982;2023-03-03T05:57:54;8.50;99.90
16243;DHT22;11719;51.052;6.982;2023-03-03T06:00:20;8.40;99.90
16243;DHT22;11719;51.052;6.982;2023-03-03T06:02:46;8.60;99.90
16243;DHT22;11719;51.052;6.982;2023-03-03T06:05:12;8.90;99.90
16243;DHT22;11719;51.052;6.982;2023-03-03T06:07:37;9.00;99.90
16243;DHT22;11719;51.052;6.982;2023-03-03T06:10:04;9.30;99.90
16243;DHT22;11719;51.052;6.982;2023-03-03T06:15:10;10.60;99.90
16243;DHT22;11719;51.052;6.982;2023-03-03T06:17:36;10.70;99.90
16243;DHT22;11719;51.052;6.982;2023-03-03T06:20:02;11.20;99.90
16243;DHT22;11719;51.052;6.982;2023-03-03T06:22:29;11.20;98.80
16243;DHT22;11719;51.052;6.982;2023-03-03T06:24:55;10.40;99.90
16243;DHT22;11719;51.052;6.982;2023-03-03T06:27:20;9.80;99.90
16243;DHT22;11719;51.052;6.982;2023-03-03T06:29:47;9.60;99.90
16243;DHT22;11719;51.052;6.982;2023-03-03T06:32:12;9.30;99.90
16243;DHT22;11719;51.052;6.982;2023-03-03T06:34:38;8.80;99.90
16243;DHT22;11719;51.052;6.982;2023-03-03T06:37:05;9.10;99.90
16243;DHT22;11719;51.052;6.982;2023-03-03T06:39:30;9.20;99.90
16243;DHT22;11719;51.052;6.982;2023-03-03T06:41:56;9.80;99.90
16243;DHT22;11719;51.052;6.982;2023-03-03T06:44:22;10.60;99.90
16243;DHT22;11719;51.052;6.982;2023-03-03T06:46:48;10.50;99.90
16243;DHT22;11719;51.052;6.982;2023-03-03T06:49:13;11.10;99.90
16243;DHT22;11719;51.052;6.982;2023-03-03T06:51:39;11.60;99.90
16243;DHT22;11719;51.052;6.982;2023-03-03T06:56:44;12.40;99.30
16243;DHT22;11719;51.052;6.982;2023-03-03T06:59:20;12.80;97.30
16243;DHT22;11719;51.052;6.982;2023-03-03T07:01:48;13.00;98.10
16243;DHT22;11719;51.052;6.982;2023-03-03T07:04:27;13.00;94.50
16243;DHT22;11719;51.052;6.982;2023-03-03T07:06:56;12.90;97.70
16243;DHT22;11719;51.052;6.982;2023-03-03T07:09:24;12.90;96.40
16243;DHT22;11719;51.052;6.982;2023-03-03T07:11:55;13.10;95.10
16243;DHT22;11719;51.052;6.982;2023-03-03T07:14:24;13.20;94.30
16243;DHT22;11719;51.052;6.982;2023-03-03T07:16:55;12.60;94.90
16243;DHT22;11719;51.052;6.982;2023-03-03T07:19:32;12.70;97.90
16243;DHT22;11719;51.052;6.982;2023-03-03T07:24:58;12.70;97.30
16243;DHT22;11719;51.052;6.982;2023-03-03T07:27:30;13.00;96.70
16243;DHT22;11719;51.052;6.982;2023-03-03T07:30:26;13.10;94.80
16243;DHT22;11719;51.052;6.982;2023-03-03T07:32:54;12.40;93.80
16243;DHT22;11719;51.052;6.982;2023-03-03T07:35:43;12.20;95.10
16243;DHT22;11719;51.052;6.982;2023-03-03T07:41:01;11.00;96.90
16243;DHT22;11719;51.052;6.982;2023-03-03T07:49:33;11.10;96.80
16243;DHT22;11719;51.052;6.982;2023-03-03T07:52:02;10.50;98.30
16243;DHT22;11719;51.052;6.982;2023-03-03T07:54:53;10.20;99.30
16243;DHT22;11719;51.052;6.982;2023-03-03T07:57:46;10.30;99.90
16243;DHT22;11719;51.052;6.982;2023-03-03T08:02:47;9.80;99.90
16243;DHT22;11719;51.052;6.982;2023-03-03T08:05:49;9.40;99.90
16243;DHT22;11719;51.052;6.982;2023-03-03T08:08:30;9.80;99.90
16243;DHT22;11719;51.052;6.982;2023-03-03T08:11:01;9.70;99.90
16243;DHT22;11719;51.052;6.982;2023-03-03T08:18:40;10.50;98.70
16243;DHT22;11719;51.052;6.982;2023-03-03T08:23:39;9.50;99.90
16243;DHT22;11719;51.052;6.982;2023-03-03T08:26:05;9.90;99.90
16243;DHT22;11719;51.052;6.982;2023-03-03T08:28:31;10.10;99.90
16243;DHT22;11719;51.052;6.982;2023-03-03T08:30:57;9.60;99.90
16243;DHT22;11719;51.052;6.982;2023-03-03T08:33:23;9.70;99.90
16243;DHT22;11719;51.052;6.982;2023-03-03T08:35:49;10.20;99.90
16243;DHT22;11719;51.052;6.982;2023-03-03T08:38:17;10.30;99.90
16243;DHT22;11719;51.052;6.982;2023-03-03T08:40:45;9.90;99.90
16243;DHT22;11719;51.052;6.982;2023-03-03T08:43:12;9.40;99.90
16243;DHT22;11719;51.052;6.982;2023-03-03T08:45:47;10.30;99.90
16243;DHT22;11719;51.052;6.982;2023-03-03T08:48:14;10.80;99.90
16243;DHT22;11719;51.052;6.982;2023-03-03T08:50:41;11.00;99.30
16243;DHT22;11719;51.052;6.982;2023-03-03T08:53:07;10.60;98.80
16243;DHT22;11719;51.052;6.982;2023-03-03T08:55:33;10.10;99.90
16243;DHT22;11719;51.052;6.982;2023-03-03T08:57:59;9.60;99.90
16243;DHT22;11719;51.052;6.982;2023-03-03T09:00:25;9.20;99.90
16243;DHT22;11719;51.052;6.982;2023-03-03T09:02:51;8.90;99.90
16243;DHT22;11719;51.052;6.982;2023-03-03T09:05:19;8.50;99.90
16243;DHT22;11719;51.052;6.982;2023-03-03T09:07:46;8.60;99.90
16243;DHT22;11719;51.052;6.982;2023-03-03T09:10:15;9.10;99.90
16243;DHT22;11719;51.052;6.982;2023-03-03T09:12:46;9.60;99.90
16243;DHT22;11719;51.052;6.982;2023-03-03T09:17:56;9.30;99.90
16243;DHT22;11719;51.052;6.982;2023-03-03T09:25:54;9.80;99.90
16243;DHT22;11719;51.052;6.982;2023-03-03T09:28:29;9.60;99.90
16243;DHT22;11719;51.052;6.982;2023-03-03T09:31:01;9.70;99.90
16243;DHT22;11719;51.052;6.982;2023-03-03T09:33:44;10.40;99.90
16243;DHT22;11719;51.052;6.982;2023-03-03T09:38:46;11.20;99.90
16243;DHT22;11719;51.052;6.982;2023-03-03T09:49:35;11.50;96.90
16243;DHT22;11719;51.052;6.982;2023-03-03T09:54:56;11.40;99.90
16243;DHT22;11719;51.052;6.982;2023-03-03T10:00:57;12.40;98.70
16243;DHT22;11719;51.052;6.982;2023-03-03T10:12:38;12.80;95.10
16243;DHT22;11719;51.052;6.982;2023-03-03T10:17:52;11.90;98.70
16243;DHT22;11719;51.052;6.982;2023-03-03T10:20:46;12.40;98.50
16243;DHT22;11719;51.052;6.982;2023-03-03T10:32:23;12.60;95.10
16243;DHT22;11719;51.052;6.982;2023-03-03T10:38:15;12.80;96.10
16243;DHT22;11719;51.052;6.982;2023-03-03T10:52:47;11.10;99.00
16243;DHT22;11719;51.052;6.982;2023-03-03T10:55:41;11.10;98.40
16243;DHT22;11719;51.052;6.982;2023-03-03T10:58:15;10.60;98.70
16243;DHT22;11719;51.052;6.982;2023-03-03T11:00:50;10.20;99.80
16243;DHT22;11719;51.052;6.982;2023-03-03T11:06:00;11.00;98.50
16243;DHT22;11719;51.052;6.982;2023-03-03T11:08:54;10.90;99.90
16243;DHT22;11719;51.052;6.982;2023-03-03T11:11:34;11.20;99.20
16243;DHT22;11719;51.052;6.982;2023-03-03T11:17:26;12.30;96.90
16243;DHT22;11719;51.052;6.982;2023-03-03T11:27:55;11.80;99.20
16243;DHT22;11719;51.052;6.982;2023-03-03T11:33:22;12.40;97.20
16243;DHT22;11719;51.052;6.982;2023-03-03T11:44:04;12.10;98.30
16243;DHT22;11719;51.052;6.982;2023-03-03T11:49:35;11.20;97.00
16243;DHT22;11719;51.052;6.982;2023-03-03T11:52:24;10.70;97.60
16243;DHT22;11719;51.052;6.982;2023-03-03T11:58:12;11.30;97.30
16243;DHT22;11719;51.052;6.982;2023-03-03T12:09:21;12.70;97.40
16243;DHT22;11719;51.052;6.982;2023-03-03T12:12:07;13.00;94.40
16243;DHT22;11719;51.052;6.982;2023-03-03T12:20:23;13.40;95.10
16243;DHT22;11719;51.052;6.982;2023-03-03T12:26:29;12.60;93.50
16243;DHT22;11719;51.052;6.982;2023-03-03T12:29:32;12.00;96.10
16243;DHT22;11719;51.052;6.982;2023-03-03T12:40:34;10.40;98.10
16243;DHT22;11719;51.052;6.982;2023-03-03T12:49:11;9.80;99.90
16243;DHT22;11719;51.052;6.982;2023-03-03T12:54:53;9.40;99.90
16243;DHT22;11719;51.052;6.982;2023-03-03T13:00:29;9.10;99.90
16243;DHT22;11719;51.052;6.982;2023-03-03T13:09:48;8.80;99.90
16243;DHT22;11719;51.052;6.982;2023-03-03T13:12:45;8.80;99.90
16243;DHT22;11719;51.052;6.982;2023-03-03T13:15:30;8.80;99.90
16243;DHT22;11719;51.052;6.982;2023-03-03T13:18:18;8.60;99.90
16243;DHT22;11719;51.052;6.982;2023-03-03T13:35:08;8.80;99.90
16243;DHT22;11719;51.052;6.982;2023-03-03T13:37:45;8.70;99.90
16243;DHT22;11719;51.052;6.982;2023-03-03T13:48:54;9.40;99.90
16243;DHT22;11719;51.052;6.982;2023-03-03T13:52:02;9.40;99.90
16243;DHT22;11719;51.052;6.982;2023-03-03T14:00:36;10.00;99.90
16243;DHT22;11719;51.052;6.982;2023-03-03T14:06:25;10.70;99.00
16243;DHT22;11719;51.052;6.982;2023-03-03T14:09:00;11.20;98.30
16243;DHT22;11719;51.052;6.982;2023-03-03T14:17:39;12.80;95.10
16243;DHT22;11719;51.052;6.982;2023-03-03T14:20:21;12.20;94.90
16243;DHT22;11719;51.052;6.982;2023-03-03T14:28:38;10.10;98.60
16243;DHT22;11719;51.052;6.982;2023-03-03T14:31:38;10.00;99.90
16243;DHT22;11719;51.052;6.982;2023-03-03T14:36:39;9.70;99.90
16243;DHT22;11719;51.052;6.982;2023-03-03T14:42:39;10.10;99.90
16243;DHT22;11719;51.052;6.982;2023-03-03T14:45:30;10.10;99.90
16243;DHT22;11719;51.052;6.982;2023-03-03T14:50:57;9.60;99.90
16243;DHT22;11719;51.052;6.982;2023-03-03T14:53:38;9.40;99.90
16243;DHT22;11719;51.052;6.982;2023-03-03T14:56:33;9.00;99.90
16243;DHT22;11719;51.052;6.982;2023-03-03T14:59:18;8.90;99.90
16243;DHT22;11719;51.052;6.982;2023-03-03T15:01:46;8.80;99.90
16243;DHT22;11719;51.052;6.982;2023-03-03T15:09:24;8.50;99.90
16243;DHT22;11719;51.052;6.982;2023-03-03T15:12:01;8.60;99.90
16243;DHT22;11719;51.052;6.982;2023-03-03T15:14:45;8.40;99.90
16243;DHT22;11719;51.052;6.982;2023-03-03T15:17:25;8.20;99.90
16243;DHT22;11719;51.052;6.982;2023-03-03T15:26:18;8.30;99.90
16243;DHT22;11719;51.052;6.982;2023-03-03T15:34:47;8.70;99.90
16243;DHT22;11719;51.052;6.982;2023-03-03T15:43:25;8.70;99.90
16243;DHT22;11719;51.052;6.982;2023-03-03T15:46:05;8.70;99.90
16243;DHT22;11719;51.052;6.982;2023-03-03T15:48:57;8.60;99.90
16243;DHT22;11719;51.052;6.982;2023-03-03T15:57:29;8.60;99.90
16243;DHT22;11719;51.052;6.982;2023-03-03T16:00:12;8.70;99.90
16243;DHT22;11719;51.052;6.982;2023-03-03T16:03:01;8.60;99.90
16243;DHT22;11719;51.052;6.982;2023-03-03T16:05:34;8.60;99.90
16243;DHT22;11719;51.052;6.982;2023-03-03T16:08:18;8.70;99.90
16243;DHT22;11719;51.052;6.982;2023-03-03T16:22:17;8.50;99.90
16243;DHT22;11719;51.052;6.982;2023-03-03T16:33:30;8.30;99.90
16243;DHT22;11719;51.052;6.982;2023-03-03T16:38:40;8.20;99.90
16243;DHT22;11719;51.052;6.982;2023-03-03T16:55:40;8.10;99.90
16243;DHT22;11719;51.052;6.982;2023-03-03T17:12:33;7.80;99.90
16243;DHT22;11719;51.052;6.982;2023-03-03T17:24:38;7.60;99.90
16243;DHT22;11719;51.052;6.982;2023-03-03T17:41:52;7.20;99.90
16243;DHT22;11719;51.052;6.982;2023-03-03T17:47:19;7.10;99.90
16243;DHT22;11719;51.052;6.982;2023-03-03T17:52:41;7.00;99.90
16243;DHT22;11719;51.052;6.982;2023-03-03T17:58:17;7.00;99.90
16243;DHT22;11719;51.052;6.982;2023-03-03T18:07:32;6.90;99.90
16243;DHT22;11719;51.052;6.982;2023-03-03T18:22:12;6.50;99.90
16243;DHT22;11719;51.052;6.982;2023-03-03T18:49:03;6.00;99.90
16243;DHT22;11719;51.052;6.982;2023-03-03T18:54:21;5.90;99.90
16243;DHT22;11719;51.052;6.982;2023-03-03T19:10:49;5.60;99.90
16243;DHT22;11719;51.052;6.982;2023-03-03T19:13:35;5.60;99.90
16243;DHT22;11719;51.052;6.982;2023-03-03T19:16:10;5.50;99.90
16243;DHT22;11719;51.052;6.982;2023-03-03T19:21:31;5.50;99.90
16243;DHT22;11719;51.052;6.982;2023-03-03T19:24:01;5.50;99.90
16243;DHT22;11719;51.052;6.982;2023-03-03T19:26:37;5.50;99.90
16243;DHT22;11719;51.052;6.982;2023-03-03T19:47:32;5.80;99.90
16243;DHT22;11719;51.052;6.982;2023-03-03T19:52:45;5.80;99.90
16243;DHT22;11719;51.052;6.982;2023-03-03T20:03:53;6.00;99.90
16243;DHT22;11719;51.052;6.982;2023-03-03T20:09:50;6.10;99.90
16243;DHT22;11719;51.052;6.982;2023-03-03T20:15:39;6.20;99.90
16243;DHT22;11719;51.052;6.982;2023-03-03T20:18:55;6.20;99.90
16243;DHT22;11719;51.052;6.982;2023-03-03T20:21:34;6.20;99.90
16243;DHT22;11719;51.052;6.982;2023-03-03T20:32:34;6.40;99.90
16243;DHT22;11719;51.052;6.982;2023-03-03T20:39:06;6.50;99.90
16243;DHT22;11719;51.052;6.982;2023-03-03T20:53:43;6.60;99.90
16243;DHT22;11719;51.052;6.982;2023-03-03T20:56:18;6.70;99.90
16243;DHT22;11719;51.052;6.982;2023-03-03T20:59:16;6.60;99.90
16243;DHT22;11719;51.052;6.982;2023-03-03T21:02:39;6.70;99.90
16243;DHT22;11719;51.052;6.982;2023-03-03T21:05:19;6.70;99.90
16243;DHT22;11719;51.052;6.982;2023-03-03T21:07:55;6.70;99.90
16243;DHT22;11719;51.052;6.982;2023-03-03T21:10:55;6.80;99.90
16243;DHT22;11719;51.052;6.982;2023-03-03T21:13:51;6.80;99.90
16243;DHT22;11719;51.052;6.982;2023-03-03T21:19:23;6.90;99.90
16243;DHT22;11719;51.052;6.982;2023-03-03T21:21:50;6.90;99.90
16243;DHT22;11719;51.052;6.982;2023-03-03T21:24:17;6.90;99.90
16243;DHT22;11719;51.052;6.982;2023-03-03T21:29:27;6.90;99.90
16243;DHT22;11719;51.052;6.982;2023-03-03T21:31:55;6.90;99.90
16243;DHT22;11719;51.052;6.982;2023-03-03T21:34:44;6.90;99.90
16243;DHT22;11719;51.052;6.982;2023-03-03T21:37:43;7.00;99.90
16243;DHT22;11719;51.052;6.982;2023-03-03T21:40:17;7.00;99.90
16243;DHT22;11719;51.052;6.982;2023-03-03T21:42:47;7.00;99.90
16243;DHT22;11719;51.052;6.982;2023-03-03T21:45:15;7.00;99.90
16243;DHT22;11719;51.052;6.982;2023-03-03T21:47:41;7.00;99.90
16243;DHT22;11719;51.052;6.982;2023-03-03T21:50:07;7.10;99.90
16243;DHT22;11719;51.052;6.982;2023-03-03T21:52:34;7.10;99.90
16243;DHT22;11719;51.052;6.982;2023-03-03T21:54:59;7.20;99.90
16243;DHT22;11719;51.052;6.982;2023-03-03T21:57:25;7.10;99.90
16243;DHT22;11719;51.052;6.982;2023-03-03T21:59:51;7.10;99.90
16243;DHT22;11719;51.052;6.982;2023-03-03T22:02:17;7.10;99.90
16243;DHT22;11719;51.052;6.982;2023-03-03T22:04:43;7.10;99.90
16243;DHT22;11719;51.052;6.982;2023-03-03T22:07:09;7.10;99.90
16243;DHT22;11719;51.052;6.982;2023-03-03T22:09:36;7.10;99.90
16243;DHT22;11719;51.052;6.982;2023-03-03T22:12:03;7.20;99.90
16243;DHT22;11719;51.052;6.982;2023-03-03T22:14:29;7.20;99.90
16243;DHT22;11719;51.052;6.982;2023-03-03T22:16:55;7.20;99.90
16243;DHT22;11719;51.052;6.982;2023-03-03T22:19:21;7.20;99.90
16243;DHT22;11719;51.052;6.982;2023-03-03T22:21:47;7.30;99.90
16243;DHT22;11719;51.052;6.982;2023-03-03T22:24:15;7.30;99.90
16243;DHT22;11719;51.052;6.982;2023-03-03T22:26:41;7.40;99.90
16243;DHT22;11719;51.052;6.982;2023-03-03T22:29:07;7.30;99.90
16243;DHT22;11719;51.052;6.982;2023-03-03T22:31:33;7.30;99.90
16243;DHT22;11719;51.052;6.982;2023-03-03T22:33:59;7.30;99.90
16243;DHT22;11719;51.052;6.982;2023-03-03T22:36:25;7.30;99.90
16243;DHT22;11719;51.052;6.982;2023-03-03T22:38:50;7.30;99.90
16243;DHT22;11719;51.052;6.982;2023-03-03T22:41:16;7.30;99.90
16243;DHT22;11719;51.052;6.982;2023-03-03T22:43:42;7.20;99.90
16243;DHT22;11719;51.052;6.982;2023-03-03T22:46:08;7.30;99.90
16243;DHT22;11719;51.052;6.982;2023-03-03T22:48:35;7.20;99.90
16243;DHT22;11719;51.052;6.982;2023-03-03T22:51:01;7.20;99.90
16243;DHT22;11719;51.052;6.982;2023-03-03T22:53:27;7.20;99.90
16243;DHT22;11719;51.052;6.982;2023-03-03T22:55:53;7.30;99.90
16243;DHT22;11719;51.052;6.982;2023-03-03T22:58:19;7.40;99.90
16243;DHT22;11719;51.052;6.982;2023-03-03T23:00:47;7.30;99.90
16243;DHT22;11719;51.052;6.982;2023-03-03T23:03:13;7.30;99.90
16243;DHT22;11719;51.052;6.982;2023-03-03T23:05:39;7.30;99.90
16243;DHT22;11719;51.052;6.982;2023-03-03T23:08:09;7.30;99.90
16243;DHT22;11719;51.052;6.982;2023-03-03T23:10:36;7.30;99.90
16243;DHT22;11719;51.052;6.982;2023-03-03T23:13:02;7.30;99.90
16243;DHT22;11719;51.052;6.982;2023-03-03T23:15:28;7.30;99.90
16243;DHT22;11719;51.052;6.982;2023-03-03T23:17:53;7.20;99.90
16243;DHT22;11719;51.052;6.982;2023-03-03T23:20:25;7.20;99.90
16243;DHT22;11719;51.052;6.982;2023-03-03T23:22:51;7.20;99.90
16243;DHT22;11719;51.052;6.982;2023-03-03T23:25:18;7.20;99.90
16243;DHT22;11719;51.052;6.982;2023-03-03T23:27:44;7.30;99.90
16243;DHT22;11719;51.052;6.982;2023-03-03T23:30:13;7.30;99.90
16243;DHT22;11719;51.052;6.982;2023-03-03T23:32:40;7.30;99.90
16243;DHT22;11719;51.052;6.982;2023-03-03T23:35:06;7.30;99.90
16243;DHT22;11719;51.052;6.982;2023-03-03T23:37:32;7.20;99.90
16243;DHT22;11719;51.052;6.982;2023-03-03T23:39:58;7.20;99.90
16243;DHT22;11719;51.052;6.982;2023-03-03T23:42:24;7.20;99.90
16243;DHT22;11719;51.052;6.982;2023-03-03T23:44:52;7.20;99.90
16243;DHT22;11719;51.052;6.982;2023-03-03T23:47:18;7.20;99.90
16243;DHT22;11719;51.052;6.982;2023-03-03T23:49:44;7.30;99.90
16243;DHT22;11719;51.052;6.982;2023-03-03T23:52:09;7.30;99.90
16243;DHT22;11719;51.052;6.982;2023-03-03T23:54:35;7.20;99.90
16243;DHT22;11719;51.052;6.982;2023-03-03T23:57:01;7.20;99.90
16243;DHT22;11719;51.052;6.982;2023-03-03T23:59:27;7.20;99.90
